createdAt,value
2024-02-10T00:04:36.299Z,7.87
2024-02-10T00:09:39.081Z,7.91
2024-02-10T00:14:42.968Z,7.96
2024-02-10T00:19:50.479Z,7.98
2024-02-10T00:24:53.195Z,7.98
2024-02-10T00:29:56.947Z,8.01
2024-02-10T00:34:59.089Z,8.10
2024-02-10T00:40:03.024Z,8.19
2024-02-10T00:45:08.969Z,8.24
2024-02-10T00:50:11.060Z,8.24
2024-02-10T00:55:13.080Z,8.26
2024-02-10T01:00:19.545Z,8.30
2024-02-10T01:05:22.767Z,8.32
2024-02-10T01:10:25.153Z,8.33
2024-02-10T01:15:31.830Z,8.26
2024-02-10T01:20:33.902Z,8.25
2024-02-10T01:25:35.793Z,8.26
2024-02-10T01:30:37.706Z,8.27
2024-02-10T01:35:39.811Z,8.28
2024-02-10T01:40:44.155Z,8.27
2024-02-10T01:45:47.100Z,8.28
2024-02-10T01:50:49.387Z,8.34
2024-02-10T01:55:52.541Z,8.42
2024-02-10T02:00:55.292Z,8.47
2024-02-10T02:05:57.928Z,8.49
2024-02-10T02:10:59.863Z,8.47
2024-02-10T02:16:02.679Z,8.46
2024-02-10T02:21:07.721Z,8.44
2024-02-10T02:26:09.611Z,8.49
2024-02-10T02:31:11.790Z,8.52
2024-02-10T02:36:14.799Z,8.51
2024-02-10T02:41:16.777Z,8.50
2024-02-10T02:46:19.857Z,8.49
2024-02-10T02:51:22.612Z,8.51
2024-02-10T02:56:27.124Z,8.55
2024-02-10T03:01:32.307Z,8.58
2024-02-10T03:06:34.722Z,8.60
2024-02-10T03:11:37.688Z,8.63
2024-02-10T03:16:41.005Z,8.63
2024-02-10T03:21:43.389Z,8.62
2024-02-10T03:26:45.363Z,8.58
2024-02-10T03:31:47.395Z,8.59
2024-02-10T03:36:52.515Z,8.68
2024-02-10T03:41:54.601Z,8.73
2024-02-10T03:46:58.323Z,8.75
2024-02-10T03:52:00.353Z,8.71
2024-02-10T03:57:02.393Z,8.73
2024-02-10T04:02:04.397Z,8.75
2024-02-10T04:07:06.340Z,8.75
2024-02-10T04:12:08.285Z,8.77
2024-02-10T04:17:10.307Z,8.71
2024-02-10T04:22:12.454Z,8.63
2024-02-10T04:27:21.334Z,8.59
2024-02-10T04:32:23.444Z,8.58
2024-02-10T04:37:25.605Z,8.56
2024-02-10T04:42:27.451Z,8.55
2024-02-10T04:47:29.612Z,8.48
2024-02-10T04:52:31.785Z,8.42
2024-02-10T04:57:33.956Z,8.37
2024-02-10T05:02:35.758Z,8.33
2024-02-10T05:07:43.421Z,8.25
2024-02-10T05:12:47.860Z,8.19
2024-02-10T05:17:52.043Z,8.14
2024-02-10T05:23:01.514Z,8.14
2024-02-10T05:28:04.188Z,8.13
2024-02-10T05:33:06.732Z,8.15
2024-02-10T05:38:09.059Z,8.24
2024-02-10T05:43:14.774Z,8.29
2024-02-10T05:48:17.889Z,8.29
2024-02-10T05:53:19.778Z,8.24
2024-02-10T05:58:24.593Z,8.18
2024-02-10T06:03:30.682Z,8.16
2024-02-10T06:08:33.060Z,8.20
2024-02-10T06:13:35.038Z,8.25
2024-02-10T06:18:38.116Z,8.29
2024-02-10T06:23:41.355Z,8.29
2024-02-10T06:28:43.460Z,8.27
2024-02-10T06:33:47.487Z,8.30
2024-02-10T06:38:49.363Z,8.36
2024-02-10T06:43:51.347Z,8.33
2024-02-10T06:48:53.278Z,8.31
2024-02-10T06:54:00.003Z,8.35
2024-02-10T06:59:04.318Z,8.41
2024-02-10T07:04:06.818Z,8.45
2024-02-10T07:09:08.826Z,8.51
2024-02-10T07:14:11.810Z,8.57
2024-02-10T07:19:17.709Z,8.61
2024-02-10T07:24:19.693Z,8.61
2024-02-10T07:29:21.599Z,8.58
2024-02-10T07:34:28.225Z,8.58
2024-02-10T07:39:30.517Z,8.62
2024-02-10T07:44:32.507Z,8.71
2024-02-10T07:49:35.241Z,8.81
2024-02-10T07:54:37.486Z,8.89
2024-02-10T07:59:40.324Z,8.97
2024-02-10T08:04:42.223Z,9.08
2024-02-10T08:09:44.251Z,9.25
2024-02-10T08:14:48.842Z,9.38
2024-02-10T08:19:58.572Z,9.52
2024-02-10T08:25:01.421Z,9.68
2024-02-10T08:30:08.357Z,9.90
2024-02-10T08:35:10.701Z,10.20
2024-02-10T08:40:14.370Z,10.46
2024-02-10T08:45:17.315Z,10.59
2024-02-10T08:50:19.939Z,10.68
2024-02-10T08:55:27.436Z,10.75
2024-02-10T09:00:29.335Z,10.73
2024-02-10T09:05:31.762Z,10.73
2024-02-10T09:10:34.217Z,10.85
2024-02-10T09:15:36.237Z,11.05
2024-02-10T09:20:38.215Z,11.24
2024-02-10T09:25:40.549Z,11.48
2024-02-10T09:30:43.001Z,11.67
2024-02-10T09:35:45.090Z,11.85
2024-02-10T09:40:47.176Z,12.06
2024-02-10T09:45:49.356Z,12.34
2024-02-10T09:50:51.276Z,12.57
2024-02-10T09:55:56.386Z,12.59
2024-02-10T10:01:02.682Z,12.42
2024-02-10T10:06:11.322Z,12.12
2024-02-10T10:11:13.545Z,11.92
2024-02-10T10:16:15.616Z,11.86
2024-02-10T10:21:18.004Z,11.81
2024-02-10T10:26:22.240Z,11.74
2024-02-10T10:31:27.581Z,11.73
2024-02-10T10:36:30.279Z,12.06
2024-02-10T10:41:34.413Z,12.50
2024-02-10T10:46:36.598Z,12.86
2024-02-10T10:51:51.677Z,13.03
2024-02-10T10:56:53.922Z,13.03
2024-02-10T11:01:56.222Z,12.94
2024-02-10T11:06:58.547Z,12.87
2024-02-10T11:12:04.525Z,12.86
2024-02-10T11:17:13.676Z,12.92
2024-02-10T11:22:24.173Z,12.99
2024-02-10T11:27:26.145Z,13.18
2024-02-10T11:32:33.288Z,13.43
2024-02-10T11:37:36.327Z,13.54
2024-02-10T11:42:38.431Z,13.54
2024-02-10T11:47:40.584Z,13.46
2024-02-10T11:52:43.904Z,13.45
2024-02-10T11:57:46.021Z,13.61
2024-02-10T12:02:49.119Z,13.84
2024-02-10T12:07:51.436Z,14.01
2024-02-10T12:12:56.913Z,14.08
2024-02-10T12:18:03.174Z,14.00
2024-02-10T12:23:05.829Z,13.88
2024-02-10T12:28:07.786Z,13.71
2024-02-10T12:33:11.262Z,13.59
2024-02-10T12:38:13.814Z,13.53
2024-02-10T12:43:15.993Z,13.48
2024-02-10T12:48:19.033Z,13.44
2024-02-10T12:53:21.336Z,13.44
2024-02-10T12:58:23.850Z,13.40
2024-02-10T13:03:27.166Z,13.39
2024-02-10T13:08:29.225Z,13.44
2024-02-10T13:13:31.124Z,13.52
2024-02-10T13:18:38.642Z,13.58
2024-02-10T13:23:44.667Z,13.66
2024-02-10T13:28:47.201Z,13.68
2024-02-10T13:33:49.546Z,13.73
2024-02-10T13:39:10.201Z,13.77
2024-02-10T13:44:32.287Z,13.76
2024-02-10T13:49:53.107Z,13.74
2024-02-10T13:55:13.905Z,13.76
2024-02-10T14:00:30.854Z,13.78
2024-02-10T14:05:59.845Z,13.76
2024-02-10T14:11:02.950Z,13.66
2024-02-10T14:16:08.027Z,13.55
2024-02-10T14:21:18.749Z,13.47
2024-02-10T14:26:39.262Z,13.38
2024-02-10T14:31:54.098Z,13.32
2024-02-10T14:37:08.584Z,13.24
2024-02-10T14:42:10.768Z,13.16
2024-02-10T14:47:13.303Z,13.05
2024-02-10T14:52:16.510Z,12.89
2024-02-10T14:57:18.387Z,12.70
2024-02-10T15:02:24.250Z,12.50
2024-02-10T15:07:26.711Z,12.31
2024-02-10T15:12:31.161Z,12.13
2024-02-10T15:17:33.151Z,11.99
2024-02-10T15:22:39.908Z,11.84
2024-02-10T15:27:41.854Z,11.70
2024-02-10T15:32:45.902Z,11.55
2024-02-10T15:37:47.970Z,11.38
2024-02-10T15:42:53.813Z,11.22
2024-02-10T15:47:56.518Z,11.02
2024-02-10T15:52:58.766Z,10.85
2024-02-10T15:58:01.094Z,10.71
2024-02-10T16:03:03.302Z,10.57
2024-02-10T16:08:05.529Z,10.41
2024-02-10T16:13:07.745Z,10.25
2024-02-10T16:18:16.685Z,10.06
2024-02-10T16:23:18.917Z,9.92
2024-02-10T16:28:20.954Z,9.81
2024-02-10T16:33:23.999Z,9.72
2024-02-10T16:38:26.146Z,9.62
2024-02-10T16:43:28.211Z,9.52
2024-02-10T16:48:33.010Z,9.42
2024-02-10T16:53:35.274Z,9.31
2024-02-10T16:58:37.580Z,9.22
2024-02-10T17:03:40.026Z,9.16
2024-02-10T17:08:46.595Z,9.07
2024-02-10T17:13:50.165Z,8.96
2024-02-10T17:18:53.692Z,8.86
2024-02-10T17:23:55.768Z,8.82
2024-02-10T17:29:02.994Z,8.79
2024-02-10T17:34:05.486Z,8.77
2024-02-10T17:39:08.006Z,8.76
2024-02-10T17:44:12.052Z,8.68
2024-02-10T17:49:26.452Z,8.59
2024-02-10T17:54:30.723Z,8.55
2024-02-10T17:59:33.048Z,8.50
2024-02-10T18:04:36.353Z,8.46
2024-02-10T18:09:39.619Z,8.40
2024-02-10T18:14:42.112Z,8.32
2024-02-10T18:19:44.958Z,8.25
2024-02-10T18:24:48.536Z,8.20
2024-02-10T18:29:52.459Z,8.19
2024-02-10T18:34:55.617Z,8.16
2024-02-10T18:39:57.854Z,8.10
2024-02-10T18:45:01.788Z,8.06
2024-02-10T18:50:04.410Z,8.02
2024-02-10T18:55:10.947Z,7.98
2024-02-10T19:00:15.370Z,7.94
2024-02-10T19:05:19.056Z,7.90
2024-02-10T19:10:22.755Z,7.86
2024-02-10T19:15:26.177Z,7.80
2024-02-10T19:20:29.952Z,7.74
2024-02-10T19:25:34.654Z,7.70
2024-02-10T19:30:39.340Z,7.65
2024-02-10T19:35:42.911Z,7.55
2024-02-10T19:40:45.509Z,7.51
2024-02-10T19:45:48.093Z,7.49
2024-02-10T19:50:51.961Z,7.49
2024-02-10T19:55:56.293Z,7.51
2024-02-10T20:01:03.219Z,7.53
2024-02-10T20:06:08.702Z,7.55
2024-02-10T20:11:10.996Z,7.66
2024-02-10T20:16:14.324Z,7.76
2024-02-10T20:21:17.855Z,7.78
2024-02-10T20:26:21.068Z,7.80
2024-02-10T20:31:24.378Z,7.80
2024-02-10T20:36:28.351Z,7.80
2024-02-10T20:41:31.322Z,7.79
2024-02-10T20:46:33.254Z,7.75
2024-02-10T20:52:53.341Z,7.70
2024-02-10T20:57:56.301Z,7.63
2024-02-10T21:03:04.450Z,7.61
2024-02-10T21:08:06.904Z,7.59
2024-02-10T21:13:11.189Z,7.56
2024-02-10T21:18:13.928Z,7.56
2024-02-10T21:23:17.706Z,7.60
2024-02-10T21:28:19.649Z,7.62
2024-02-10T21:33:22.031Z,7.64
2024-02-10T21:38:24.131Z,7.67
2024-02-10T21:43:26.832Z,7.75
2024-02-10T21:48:30.109Z,7.84
2024-02-10T21:53:32.227Z,7.90
2024-02-10T21:58:36.201Z,7.95
2024-02-10T22:03:38.533Z,8.02
2024-02-10T22:08:42.275Z,8.10
2024-02-10T22:13:44.385Z,8.17
2024-02-10T22:18:46.887Z,8.27
2024-02-10T22:23:49.064Z,8.37
2024-02-10T22:28:51.262Z,8.45
2024-02-10T22:33:55.076Z,8.49
2024-02-10T22:38:57.270Z,8.51
2024-02-10T22:44:01.008Z,8.53
2024-02-10T22:49:04.370Z,8.61
2024-02-10T22:54:07.302Z,8.70
2024-02-10T22:59:13.168Z,8.80
2024-02-10T23:04:15.239Z,8.86
2024-02-10T23:09:17.332Z,8.90
2024-02-10T23:14:21.555Z,8.81
2024-02-10T23:19:29.251Z,8.96
2024-02-10T23:24:31.485Z,8.95
2024-02-10T23:29:33.331Z,8.96
2024-02-10T23:34:35.352Z,9.05
2024-02-10T23:39:37.614Z,9.16
2024-02-10T23:44:39.459Z,9.23
2024-02-10T23:49:45.807Z,9.30
2024-02-10T23:54:49.227Z,9.38
2024-02-10T23:59:51.271Z,9.42
